• Join FlightAware (Why Join?)
  • Login
  • US Flag 
04:09AM EDT


 

Airport Tracker/Info


-or-


 

Live Flight TrackerFlight Track Log ✈ CHH7754 ✈ 27-Jul-2013 ✈ ZSLY / LYI - ZGSZ / SZX

Flight Track Log - Related Links

Times and Time Zones

All times are in EDT time to prevent confusion due to time zone crossing. See the CHH7754 flight status page for this flight to view local times or setup timezone preferences in your user account.

Time Position Orientation Groundspeed Altitude Reporting Facility
EDT Latitude Longitude Course Direction KTS MPH feet Rate Location/Type
10:35AM 34.9548 118.3730 199° South  Level Estimated
10:36AM 34.8636 118.3344 199° South  Level Estimated
10:37AM 34.7723 118.2960 199° South  Level Estimated
10:38AM 34.6810 118.2576 199° South  Level Estimated
10:39AM 34.5897 118.2192 199° South  Level Estimated
10:40AM 34.4984 118.1810 199° South  Level Estimated
10:41AM 34.4070 118.1429 199° South  Level Estimated
10:42AM 34.3157 118.1048 199° South  Level Estimated
10:43AM 34.2243 118.0668 199° South  Level Estimated
10:44AM 34.1330 118.0289 199° South  Level Estimated
10:45AM 34.0416 117.9911 199° South  Level Estimated
10:46AM 33.9502 117.9533 199° South  Level Estimated
10:47AM 33.8588 117.9157 199° South  Level Estimated
10:48AM 33.7674 117.8781 199° South  Level Estimated
10:49AM 33.6760 117.8406 199° South  Level Estimated
10:50AM 33.5845 117.8032 199° South  Level Estimated
10:51AM 33.4931 117.7658 199° South  Level Estimated
10:52AM 33.4016 117.7286 199° South  Level Estimated
10:53AM 33.3101 117.6914 199° South  Level Estimated
10:54AM 33.2187 117.6543 199° South  Level Estimated
10:55AM 33.1272 117.6173 199° South  Level Estimated
10:56AM 33.0357 117.5803 199° South  Level Estimated
10:57AM 32.9442 117.5434 199° South  Level Estimated
10:58AM 32.8526 117.5067 199° South  Level Estimated
10:59AM 32.7611 117.4699 199° South  Level Estimated
11:00AM 32.6696 117.4333 199° South  Level Estimated
11:01AM 32.5780 117.3967 199° South  Level Estimated
11:02AM 32.4864 117.3602 199° South  Level Estimated
11:03AM 32.3948 117.3238 199° South  Level Estimated
11:04AM 32.3032 117.2875 199° South  Level Estimated
11:05AM 32.2130 117.2517 199° South  Level Estimated
11:06AM 32.1227 117.2160 199° South  Level Estimated
11:07AM 32.0324 117.1805 198° South  Level Estimated
11:08AM 31.9422 117.1449 198° South  Level Estimated
11:09AM 31.8519 117.1095 198° South  Level Estimated
11:10AM 31.7615 117.0741 198° South  Level Estimated
11:11AM 31.6712 117.0387 198° South  Level Estimated
11:12AM 31.5809 117.0035 198° South  Level Estimated
11:13AM 31.4905 116.9683 198° South  Level Estimated
11:14AM 31.4002 116.9332 198° South  Level Estimated
11:15AM 31.3098 116.8981 198° South  Level Estimated
11:16AM 31.2195 116.8631 198° South  Level Estimated
11:17AM 31.1291 116.8282 198° South  Level Estimated
11:18AM 31.0387 116.7934 198° South  Level Estimated
11:19AM 30.9483 116.7586 198° South  Level Estimated
11:20AM 30.8579 116.7239 198° South  Level Estimated
11:21AM 30.7675 116.6892 198° South  Level Estimated
11:22AM 30.6770 116.6546 198° South  Level Estimated
11:23AM 30.5866 116.6201 198° South  Level Estimated
11:24AM 30.4962 116.5856 198° South  Level Estimated
11:25AM 30.4057 116.5512 198° South  Level Estimated
11:26AM 30.3153 116.5169 198° South  Level Estimated
11:27AM 30.2248 116.4826 198° South  Level Estimated
11:28AM 30.1343 116.4484 198° South  Level Estimated
11:29AM 30.0438 116.4143 198° South  Level Estimated
11:30AM 29.9533 116.3802 198° South  Level Estimated
11:31AM 29.8628 116.3462 198° South  Level Estimated
11:32AM 29.7723 116.3122 198° South  Level Estimated
11:33AM 29.6818 116.2783 198° South  Level Estimated
11:34AM 29.5913 116.2445 198° South  Level Estimated
11:35AM 29.5007 116.2107 198° South  Level Estimated
11:36AM 29.4102 116.1770 198° South  Level Estimated
11:37AM 29.3196 116.1433 198° South  Level Estimated
11:38AM 29.2290 116.1098 198° South  Level Estimated
11:39AM 29.1385 116.0762 198° South  Level Estimated
11:40AM 29.0479 116.0427 198° South  Level Estimated
11:41AM 28.9573 116.0093 198° South  Level Estimated
11:42AM 28.8667 115.9760 198° South  Level Estimated
11:43AM 28.7761 115.9427 198° South  Level Estimated
11:44AM 28.6855 115.9094 198° South  Level Estimated
11:45AM 28.5949 115.8762 198° South  Level Estimated
11:46AM 28.5042 115.8431 198° South  Level Estimated
11:47AM 28.4136 115.8100 198° South  Level Estimated
11:48AM 28.3229 115.7770 198° South  Level Estimated
11:49AM 28.2323 115.7440 198° South  Level Estimated
11:50AM 28.1416 115.7112 198° South  Level Estimated
11:51AM 28.0509 115.6783 198° South  Level Estimated
11:52AM 27.9603 115.6455 198° South  Level Estimated
11:53AM 27.8696 115.6128 198° South  Level Estimated
11:54AM 27.7789 115.5801 198° South  Level Estimated
11:55AM 27.6882 115.5475 198° South  Level Estimated
11:56AM 27.5975 115.5149 198° South  Level Estimated
11:57AM 27.5068 115.4824 198° South  Level Estimated
11:58AM 27.4160 115.4499 198° South  Level Estimated
11:59AM 27.3253 115.4175 198° South  Level Estimated
12:00PM 27.2346 115.3851 198° South  Level Estimated
12:01PM 27.1438 115.3528 198° South  Level Estimated
12:02PM 27.0531 115.3206 198° South  Level Estimated
12:03PM 26.9623 115.2884 198° South  Level Estimated
12:04PM 26.8715 115.2562 198° South  Level Estimated
12:05PM 26.7808 115.2241 198° South  Level Estimated
12:06PM 26.6900 115.1921 198° South  Level Estimated
12:07PM 26.5992 115.1601 197° South  Level Estimated
12:08PM 26.5084 115.1281 197° South  Level Estimated
12:09PM 26.4176 115.0962 197° South  Level Estimated
12:10PM 26.3268 115.0644 197° South  Level Estimated
12:11PM 26.2360 115.0326 197° South  Level Estimated
12:12PM 26.1451 115.0008 197° South  Level Estimated
12:13PM 26.0543 114.9691 197° South  Level Estimated
12:14PM 25.9634 114.9375 197° South  Level Estimated
12:15PM 25.8726 114.9059 197° South  Level Estimated
12:16PM 25.7817 114.8743 197° South  Level Estimated
12:17PM 25.6909 114.8428 197° South  Level Estimated
12:18PM 25.6000 114.8114 197° South  Level Estimated
12:19PM 25.5091 114.7800 197° South  Level Estimated
12:20PM 25.4183 114.7486 197° South  Level Estimated
12:21PM 25.3274 114.7173 197° South  Level Estimated
12:22PM 25.2365 114.6860 197° South  Level Estimated
12:23PM 25.1456 114.6548 197° South  Level Estimated
12:24PM 25.0547 114.6236 197° South  Level Estimated
12:25PM 24.9638 114.5925 197° South  Level Estimated
12:26PM 24.8729 114.5614 197° South  Level Estimated
12:27PM 24.7819 114.5304 197° South  Level Estimated
12:28PM 24.6910 114.4994 197° South  Level Estimated
12:29PM 24.6000 114.4685 197° South  Level Estimated
12:30PM 24.5091 114.4376 197° South  Level Estimated
12:31PM 24.4181 114.4067 197° South  Level Estimated
12:32PM 24.3272 114.3759 197° South  Level Estimated
12:33PM 24.2362 114.3452 197° South  Level Estimated
12:34PM 24.1453 114.3144 197° South  Level Estimated
12:35PM 24.0543 114.2838 197° South  Level Estimated
12:36PM 23.9633 114.2531 197° South  Level Estimated
12:37PM 23.8723 114.2225 197° South  Level Estimated
12:38PM 23.7813 114.1920 197° South  Level Estimated
12:39PM 23.6903 114.1615 197° South  Level Estimated
12:40PM 23.5993 114.1310 197° South  Level Estimated
12:41PM 23.5083 114.1006 197° South  Level Estimated
12:42PM 23.4173 114.0702 197° South  Level Estimated
12:43PM 23.3263 114.0399 197° South  Level Estimated
12:44PM 23.2352 114.0096 197° South  Level Estimated
12:45PM 23.1442 113.9794 197° South  Level Estimated
12:46PM 23.0532 113.9492 197° South  Level Estimated
12:47PM 22.9621 113.9190 197° South  Level Estimated
12:48PM 22.8710 113.8888 197° South  Level Estimated
12:49PM 22.7800 113.8588 197° South  Level Estimated
12:50PM 22.6889 113.8287 197° South  Level Estimated
12:51PM 22.6395 113.8124 197° South  Level Estimated
12:52PM 22.6395 113.8124 25° Northeast  Level Estimated
12:53PM 22.6395 113.8124 25° Northeast  Level Estimated